RRL weather

Merrill Municipal Airport
Merrill, Wisconsin, United States

Public forecast

Using degrees Fahrenheit for public forecast. Weather courtesy of forecast.io.

Current aviation weather report (METAR) for Merrill Municipal Airport

Retrieved 2020/04/08 05:15 UTC (0 seconds ago):

KRRL 080515Z AUTO 28005KT 3SM BR SCT100 08/08 A2971 RMK AO2 T00830083 TSNO

Closest aviation forecast (TAF) to Merrill Municipal Airport

Closest forecast is Wausau Downtown Airport, 16.8 nm (31.1 km) SSE. Retrieved 2020-04-08 00:22 UTC (5 hours ago):

TAF KAUW 072320Z 0800/0824 30006KT P6SM SCT200 FM080500 30004KT 3SM BR SKC TEMPO 0808/0811 1SM BR BKN002 FM081400 26006KT P6SM SCT015 BKN120 FM081800 29014G22KT P6SM BKN080